Fair Seas — V7PD2 — position and weather

sailwx.info

Track history (hours):
 
Tides and Currents Weather Stations Pressure Air Temp Water Temp Dewpoint Dewpoint Depression Visibility Wind Speed Wind Dir Waves Ship Positions

Fair Seas

Last reported at 2016-Aug-13 18:20 UTC. Time now 2016-Aug-31 04:21 UTC.
Position N 02°28' E 101°39'.
Warning: this ship's position is 17 days out of date.

Length 250 m; draft 8 m.

Type: Ship (hazmat cat C). MMSI: 538003211.

Date/timePositionNaut miles runAvg speedWind from/ knotsBaromVisibWave heightAir tempDewpointWater temp
2016-Aug-13 18:20N 02°28' E 101°39'1113.6
2016-Aug-13 17:31N 02°21' E 101°47'2914.1
2016-Aug-13 15:29N 02°03' E 102°09'1314.0
2016-Aug-13 14:33N 01°55' E 102°20'1414.1
2016-Aug-13 13:33N 01°49' E 102°33'1413.7
2016-Aug-13 12:32N 01°44' E 102°45'5712.9
2016-Aug-13 08:06N 01°12' E 103°33'814.1
2016-Aug-13 07:33N 01°10' E 103°41'1313.0
2016-Aug-13 06:34N 01°13' E 103°53'1413.4
2016-Aug-13 05:33N 01°16' E 104°06'  
2016-Aug-05 09:26N 01°15' E 104°04'1112.6
2016-Aug-05 08:33N 01°12' E 103°53'1211.9
2016-Aug-05 07:33N 01°05' E 103°43'9313.0
2016-Aug-05 00:26N 01°50' E 102°22'  
Track history (hours):
 
Tides and Currents Weather Stations Pressure Air Temp Water Temp Dewpoint Dewpoint Depression Visibility Wind Speed Wind Dir Waves Ship Positions

Fair Seas

Last reported at 2016-Aug-13 18:20 UTC. Time now 2016-Aug-31 04:21 UTC.
Position N 02°28' E 101°39'.
Warning: this ship's position is 17 days out of date.

Length 250 m; draft 8 m.

Type: Ship (hazmat cat C). MMSI: 538003211.

Date/timePositionNaut miles runAvg speedWind from/ knotsBaromVisibWave heightAir tempDewpointWater temp
2016-Aug-13 18:20N 02°28' E 101°39'1113.6
2016-Aug-13 17:31N 02°21' E 101°47'2914.1
2016-Aug-13 15:29N 02°03' E 102°09'1314.0
2016-Aug-13 14:33N 01°55' E 102°20'1414.1
2016-Aug-13 13:33N 01°49' E 102°33'1413.7
2016-Aug-13 12:32N 01°44' E 102°45'5712.9
2016-Aug-13 08:06N 01°12' E 103°33'814.1
2016-Aug-13 07:33N 01°10' E 103°41'1313.0
2016-Aug-13 06:34N 01°13' E 103°53'1413.4
2016-Aug-13 05:33N 01°16' E 104°06'  
2016-Aug-05 09:26N 01°15' E 104°04'1112.6
2016-Aug-05 08:33N 01°12' E 103°53'1211.9
2016-Aug-05 07:33N 01°05' E 103°43'9313.0
2016-Aug-05 00:26N 01°50' E 102°22'  

Dump ship's entire track history